Maxie, Mississippi
Current Conditions -  °F | °C
As of 2:53 PM on Saturday 22 Nov 2014 (Local Time) from KHBG Reporting Station
Clear Clear  
Wind Chill: 69°   Ceiling: Unl
Heat Index: 69°   Visibility: 10mi
Dew Point: 54°   Wind: 6mph
Humidity: 58%   Direction: 130°SE
Pressure: 30.11"   Gusts: NA
Location:  30.9811°N, 89.2354°W
Report Text: KHBG 222053Z AUTO 13005KT 10SM CLR 21/12 A3011 RMK AO2 SLP194 T02060122 55026
Loading
Personal Weather Stations






























Interactive Weather Map New forecast layout! Learn more

10-Day Weather Forecast

Advertisements
Track Severe Weather on mobile